Howellville, Texas
Current Conditions -  °F | °C
As of 3:53 AM on Wednesday 22 Oct 2014 (Local Time) from KSGR Reporting Station
Clear Clear  
Wind Chill: 63°   Ceiling: Unl
Heat Index: 63°   Visibility: 10mi
Dew Point: 60°   Wind: 3mph
Humidity: 90%   Direction: 40°NE
Pressure: 30.02"   Gusts: NA
Location:  29.7106°N, 95.5963°W
Report Text: KSGR 220853Z AUTO 04003KT 10SM CLR 17/16 A3002 RMK AO2 SLP165 T01720156 58005
Loading
Personal Weather Stations






























Interactive Weather Map
Tropical Storm Tracking
New forecast layout! Learn more

10-Day Weather Forecast

Advertisements
Track Severe Weather on mobile